createdAt,value
2018-10-21T00:00:17.787Z,17.70
2018-10-21T00:02:47.944Z,17.00
2018-10-21T00:05:17.094Z,17.13
2018-10-21T00:07:46.138Z,17.43
2018-10-21T00:10:15.177Z,18.67
2018-10-21T00:12:44.154Z,18.43
2018-10-21T00:15:13.317Z,18.30
2018-10-21T00:17:42.226Z,18.60
2018-10-21T00:20:11.245Z,17.83
2018-10-21T00:22:40.306Z,20.40
2018-10-21T00:25:09.379Z,19.43
2018-10-21T00:27:38.526Z,18.63
2018-10-21T00:30:07.793Z,19.47
2018-10-21T00:32:42.142Z,19.83
2018-10-21T00:35:11.158Z,20.07
2018-10-21T00:37:40.317Z,18.63
2018-10-21T00:40:09.382Z,19.40
2018-10-21T00:42:38.567Z,21.17
2018-10-21T00:45:08.225Z,20.03
2018-10-21T00:47:37.306Z,19.13
2018-10-21T00:50:07.185Z,18.30
2018-10-21T00:52:36.231Z,21.20
2018-10-21T00:55:06.234Z,19.20
2018-10-21T00:57:35.248Z,20.03
2018-10-21T01:00:05.141Z,20.03
2018-10-21T01:02:34.213Z,18.93
2018-10-21T01:05:03.252Z,18.17
2018-10-21T01:07:32.327Z,18.23
2018-10-21T01:10:01.443Z,17.97
2018-10-21T01:12:30.458Z,17.13
2018-10-21T01:14:59.432Z,17.67
2018-10-21T01:17:28.451Z,17.93
2018-10-21T01:19:57.567Z,17.23
2018-10-21T01:22:26.659Z,17.47
2018-10-21T01:24:55.722Z,16.77
2018-10-21T01:27:24.720Z,15.80
2018-10-21T01:29:53.727Z,16.80
2018-10-21T01:32:22.756Z,16.07
2018-10-21T01:34:51.879Z,16.53
2018-10-21T01:37:20.931Z,16.80
2018-10-21T01:40:54.710Z,16.37
2018-10-21T01:43:24.932Z,17.00
2018-10-21T01:45:53.926Z,16.70
2018-10-21T01:48:23.946Z,17.73
2018-10-21T01:50:52.989Z,17.60
2018-10-21T01:53:22.474Z,19.07
2018-10-21T01:55:51.509Z,17.63
2018-10-21T01:58:20.634Z,18.53
2018-10-21T02:00:49.650Z,17.43
2018-10-21T02:03:18.781Z,18.40
2018-10-21T02:05:48.093Z,18.37
2018-10-21T02:08:17.141Z,18.57
2018-10-21T02:10:46.290Z,18.33
2018-10-21T02:13:15.262Z,18.27
2018-10-21T02:15:44.378Z,19.10
2018-10-21T02:18:13.366Z,17.40
2018-10-21T02:20:42.338Z,18.23
2018-10-21T02:23:11.403Z,17.17
2018-10-21T02:25:40.422Z,16.37
2018-10-21T02:28:09.465Z,16.93
2018-10-21T02:30:38.419Z,17.40
2018-10-21T02:33:07.506Z,17.53
2018-10-21T02:35:36.477Z,17.03
2018-10-21T02:38:05.767Z,16.77
2018-10-21T02:41:44.650Z,17.60
2018-10-21T02:44:15.954Z,15.87
2018-10-21T02:46:45.631Z,16.93
2018-10-21T02:49:15.370Z,17.17
2018-10-21T02:51:48.614Z,16.23
2018-10-21T02:54:22.128Z,16.93
2018-10-21T02:56:51.246Z,17.03
2018-10-21T02:59:20.438Z,15.97
2018-10-21T03:01:49.533Z,16.97
2018-10-21T03:04:18.931Z,16.87
2018-10-21T03:06:48.145Z,16.30
2018-10-21T03:09:17.199Z,17.33
2018-10-21T03:11:46.186Z,16.70
2018-10-21T03:14:15.179Z,17.33
2018-10-21T03:16:44.194Z,17.13
2018-10-21T03:19:13.214Z,17.60
2018-10-21T03:21:42.172Z,17.97
2018-10-21T03:24:11.234Z,16.17
2018-10-21T03:26:40.317Z,16.13
2018-10-21T03:29:09.380Z,17.67
2018-10-21T03:31:38.461Z,15.60
2018-10-21T03:34:07.579Z,18.07
2018-10-21T03:36:36.550Z,16.17
2018-10-21T03:39:07.583Z,16.47
2018-10-21T03:41:36.747Z,17.60
2018-10-21T03:44:05.792Z,17.07
2018-10-21T03:46:34.767Z,17.23
2018-10-21T03:49:03.891Z,17.63
2018-10-21T03:51:32.957Z,16.53
2018-10-21T03:54:02.065Z,17.53
2018-10-21T03:56:31.053Z,18.13
2018-10-21T03:59:00.078Z,16.97
2018-10-21T04:01:29.171Z,18.00
2018-10-21T04:03:58.173Z,17.87
2018-10-21T04:06:27.164Z,17.80
2018-10-21T04:08:56.183Z,17.30
2018-10-21T04:11:25.207Z,16.60
2018-10-21T04:13:54.267Z,16.50
2018-10-21T04:16:23.405Z,17.93
2018-10-21T04:18:52.533Z,17.17
2018-10-21T04:21:21.540Z,18.33
2018-10-21T04:23:50.570Z,16.63
2018-10-21T04:26:20.210Z,17.93
2018-10-21T04:28:49.222Z,17.87
2018-10-21T04:31:18.247Z,19.27
2018-10-21T04:33:47.362Z,16.73
2018-10-21T04:36:20.857Z,16.93
2018-10-21T04:40:01.110Z,16.90
2018-10-21T04:42:30.317Z,18.00
2018-10-21T04:44:59.722Z,19.00
2018-10-21T04:47:29.126Z,16.80
2018-10-21T04:49:58.117Z,16.50
2018-10-21T04:52:27.883Z,16.73
2018-10-21T04:55:01.167Z,17.43
2018-10-21T04:57:30.171Z,16.67
2018-10-21T04:59:59.266Z,17.30
2018-10-21T05:02:29.171Z,18.07
2018-10-21T05:04:58.138Z,17.03
2018-10-21T05:07:27.171Z,17.33
2018-10-21T05:09:56.183Z,16.80
2018-10-21T05:12:25.213Z,16.87
2018-10-21T05:17:13.469Z,17.30
2018-10-21T05:19:42.554Z,18.27
2018-10-21T05:22:11.621Z,15.93
2018-10-21T05:24:40.847Z,16.23
2018-10-21T05:27:09.873Z,18.10
2018-10-21T05:29:38.842Z,18.00
2018-10-21T05:32:07.933Z,17.80
2018-10-21T05:34:36.923Z,17.07
2018-10-21T05:37:06.266Z,17.67
2018-10-21T05:39:35.314Z,17.03
2018-10-21T05:42:04.339Z,17.13
2018-10-21T05:44:33.406Z,17.37
2018-10-21T05:47:02.496Z,16.70
2018-10-21T05:49:31.509Z,17.87
2018-10-21T05:52:00.572Z,18.17
2018-10-21T05:54:29.579Z,17.80
2018-10-21T05:56:58.599Z,16.70
2018-10-21T05:59:27.600Z,17.50
2018-10-21T06:01:56.724Z,18.33
2018-10-21T06:04:25.713Z,17.33
2018-10-21T06:06:54.841Z,18.07
2018-10-21T06:09:23.819Z,17.23
2018-10-21T06:11:52.859Z,16.83
2018-10-21T06:14:22.878Z,17.03
2018-10-21T06:16:57.235Z,16.40
2018-10-21T06:19:31.303Z,17.30
2018-10-21T06:22:00.546Z,16.87
2018-10-21T06:24:29.522Z,17.27
2018-10-21T06:26:59.780Z,17.40
2018-10-21T06:29:29.872Z,18.43
2018-10-21T06:31:58.912Z,18.43
2018-10-21T06:34:27.934Z,16.83
2018-10-21T06:36:56.950Z,18.60
2018-10-21T06:39:26.001Z,18.47
2018-10-21T06:41:55.034Z,17.30
2018-10-21T06:44:24.111Z,16.23
2018-10-21T06:46:53.152Z,16.17
2018-10-21T06:49:22.277Z,17.97
2018-10-21T06:51:51.454Z,16.57
2018-10-21T06:54:20.524Z,17.13
2018-10-21T06:56:50.030Z,17.30
2018-10-21T06:59:18.870Z,17.40
2018-10-21T07:01:47.863Z,17.77
2018-10-21T07:04:16.945Z,16.67
2018-10-21T07:06:45.989Z,18.43
2018-10-21T07:09:15.047Z,17.93
2018-10-21T07:11:44.134Z,18.10
2018-10-21T07:14:13.128Z,20.27
2018-10-21T07:16:42.450Z,19.07
2018-10-21T07:19:11.298Z,19.53
2018-10-21T07:21:41.754Z,18.47
2018-10-21T07:24:10.810Z,18.33
2018-10-21T07:26:39.827Z,18.10
2018-10-21T07:29:09.025Z,16.80
2018-10-21T07:31:38.044Z,16.80
2018-10-21T07:34:07.154Z,17.00
2018-10-21T07:36:36.089Z,20.17
2018-10-21T07:39:07.690Z,19.17
2018-10-21T07:41:36.701Z,18.63
2018-10-21T07:44:05.745Z,19.37
2018-10-21T07:46:34.893Z,19.40
2018-10-21T07:49:04.022Z,18.67
2018-10-21T07:51:33.090Z,19.47
2018-10-21T07:54:02.206Z,19.57
2018-10-21T07:56:31.239Z,18.37
2018-10-21T07:59:00.350Z,18.90
2018-10-21T08:01:29.536Z,20.37
2018-10-21T08:03:58.560Z,19.13
2018-10-21T08:06:38.946Z,17.80
2018-10-21T08:09:10.287Z,17.30
2018-10-21T08:11:39.348Z,17.97
2018-10-21T08:14:08.329Z,18.97
2018-10-21T08:16:37.412Z,18.83
2018-10-21T08:19:06.520Z,18.23
2018-10-21T08:21:35.550Z,18.20
2018-10-21T08:24:04.638Z,17.60
2018-10-21T08:26:33.795Z,19.37
2018-10-21T08:29:02.889Z,18.70
2018-10-21T08:31:31.879Z,17.13
2018-10-21T08:36:30.240Z,17.63
2018-10-21T08:38:59.263Z,19.00
2018-10-21T08:41:28.250Z,19.07
2018-10-21T08:43:57.297Z,16.93
2018-10-21T08:46:26.420Z,18.77
2018-10-21T08:48:55.396Z,19.77
2018-10-21T08:51:24.812Z,18.13
2018-10-21T08:53:53.809Z,19.60
2018-10-21T08:56:22.808Z,20.50
2018-10-21T08:58:51.842Z,22.57
2018-10-21T09:01:20.946Z,20.97
2018-10-21T09:03:49.990Z,22.00
2018-10-21T09:06:19.014Z,23.60
2018-10-21T09:08:48.056Z,23.17
2018-10-21T09:11:17.094Z,22.90
2018-10-21T09:13:46.151Z,22.87
2018-10-21T09:16:15.382Z,21.87
2018-10-21T09:18:44.431Z,20.47
2018-10-21T09:21:13.455Z,19.30
2018-10-21T09:23:42.599Z,18.00
2018-10-21T09:26:11.809Z,17.37
2018-10-21T09:31:15.956Z,16.83
2018-10-21T09:33:45.337Z,15.30
2018-10-21T09:36:14.462Z,16.17
2018-10-21T09:38:43.601Z,16.67
2018-10-21T09:41:12.822Z,15.67
2018-10-21T09:43:42.175Z,15.00
2018-10-21T09:46:11.736Z,14.97
2018-10-21T09:48:40.764Z,14.63
2018-10-21T09:51:09.842Z,15.07
2018-10-21T09:53:38.909Z,12.00
2018-10-21T09:56:07.949Z,10.30
2018-10-21T09:58:37.007Z,9.47
2018-10-21T10:01:12.410Z,10.23
2018-10-21T10:03:41.595Z,9.27
2018-10-21T10:06:10.823Z,10.60
2018-10-21T10:08:40.220Z,8.53
2018-10-21T10:11:10.479Z,10.40
2018-10-21T10:13:39.555Z,10.27
2018-10-21T10:16:08.700Z,10.00
2018-10-21T10:18:38.381Z,10.10
2018-10-21T10:21:07.766Z,10.97
2018-10-21T10:23:37.109Z,10.87
2018-10-21T10:26:06.087Z,10.30
2018-10-21T10:28:35.090Z,10.30
2018-10-21T10:31:04.186Z,8.50
2018-10-21T10:33:33.370Z,9.10
2018-10-21T10:36:02.592Z,9.07
2018-10-21T10:38:31.606Z,8.50
2018-10-21T10:41:00.675Z,8.53
2018-10-21T10:43:29.743Z,8.17
2018-10-21T10:45:58.872Z,9.03
2018-10-21T10:48:27.914Z,9.10
2018-10-21T10:50:56.998Z,9.27
2018-10-21T10:53:26.262Z,9.20
2018-10-21T10:55:55.339Z,8.53
2018-10-21T10:58:24.421Z,9.67
2018-10-21T11:00:53.643Z,10.53
2018-10-21T11:03:22.586Z,9.83
2018-10-21T11:05:51.658Z,10.07
2018-10-21T11:08:20.721Z,10.07
2018-10-21T11:10:49.773Z,8.83
2018-10-21T11:13:18.837Z,9.80
2018-10-21T11:15:47.881Z,9.03
2018-10-21T11:18:16.993Z,9.17
2018-10-21T11:20:46.097Z,8.97
2018-10-21T11:23:15.130Z,15.07
2018-10-21T11:25:44.332Z,10.80
2018-10-21T11:28:13.584Z,9.40
2018-10-21T11:30:42.504Z,9.70
2018-10-21T11:33:11.720Z,9.73
2018-10-21T11:35:40.900Z,9.00
2018-10-21T11:38:10.070Z,10.23
2018-10-21T11:40:39.505Z,9.33
2018-10-21T11:43:08.733Z,9.93
2018-10-21T11:45:37.834Z,9.57
2018-10-21T11:48:06.814Z,9.43
2018-10-21T11:50:36.126Z,9.73
2018-10-21T11:53:05.459Z,9.23
2018-10-21T11:55:38.188Z,8.60
2018-10-21T11:58:09.055Z,8.43
2018-10-21T12:00:38.069Z,9.70
2018-10-21T12:03:07.657Z,8.23
2018-10-21T12:05:36.685Z,7.73
2018-10-21T12:08:05.798Z,6.17
2018-10-21T12:10:34.788Z,7.10
2018-10-21T12:13:03.905Z,7.17
2018-10-21T12:15:32.996Z,8.60
2018-10-21T12:18:01.993Z,6.40
2018-10-21T12:20:31.009Z,7.43
2018-10-21T12:23:00.277Z,6.87
2018-10-21T12:25:29.149Z,6.60
2018-10-21T12:27:58.223Z,6.97
2018-10-21T12:30:27.191Z,6.80
2018-10-21T12:32:56.221Z,8.37
2018-10-21T12:35:25.255Z,7.53
2018-10-21T12:37:54.290Z,7.93
2018-10-21T12:40:23.342Z,8.07
2018-10-21T12:42:52.376Z,8.00
2018-10-21T12:45:21.379Z,7.20
2018-10-21T12:47:50.402Z,7.37
2018-10-21T12:50:19.404Z,7.23
2018-10-21T12:52:48.433Z,7.43
2018-10-21T12:55:17.495Z,7.17
2018-10-21T12:57:46.419Z,7.43
2018-10-21T13:00:15.414Z,7.57
2018-10-21T13:02:44.460Z,7.60
2018-10-21T13:05:13.502Z,6.70
2018-10-21T13:07:42.619Z,7.53
2018-10-21T13:10:11.900Z,6.77
2018-10-21T13:12:40.912Z,7.67
2018-10-21T13:15:10.282Z,7.97
2018-10-21T13:17:39.347Z,7.40
2018-10-21T13:20:08.470Z,7.97
2018-10-21T13:22:37.607Z,8.17
2018-10-21T13:25:06.674Z,7.23
2018-10-21T13:27:35.882Z,7.77
2018-10-21T13:30:05.550Z,7.57
2018-10-21T13:32:34.588Z,8.43
2018-10-21T13:35:04.857Z,8.10
2018-10-21T13:37:34.023Z,7.80
2018-10-21T13:40:03.225Z,7.90
2018-10-21T13:42:32.210Z,8.40
2018-10-21T13:45:01.198Z,8.50
2018-10-21T13:47:30.328Z,8.17
2018-10-21T13:49:59.705Z,7.80
2018-10-21T13:52:28.793Z,8.70
2018-10-21T13:54:57.951Z,8.20
2018-10-21T13:57:27.063Z,7.70
2018-10-21T13:59:56.063Z,7.83
2018-10-21T14:02:25.281Z,7.80
2018-10-21T14:04:54.344Z,7.70
2018-10-21T14:07:23.514Z,7.20
2018-10-21T14:09:52.497Z,8.13
2018-10-21T14:12:21.515Z,7.37
2018-10-21T14:14:50.656Z,7.80
2018-10-21T14:17:19.938Z,7.70
2018-10-21T14:19:49.033Z,8.77
2018-10-21T14:22:18.157Z,7.77
2018-10-21T14:24:47.313Z,8.03
2018-10-21T14:27:16.403Z,8.30
2018-10-21T14:29:45.478Z,7.70
2018-10-21T14:32:14.636Z,7.93
2018-10-21T14:34:43.988Z,7.80
2018-10-21T14:37:13.062Z,7.70
2018-10-21T14:39:42.072Z,7.87
2018-10-21T14:42:11.254Z,7.83
2018-10-21T14:44:40.162Z,8.17
2018-10-21T14:47:09.290Z,7.80
2018-10-21T14:49:38.411Z,7.67
2018-10-21T14:52:07.573Z,7.50
2018-10-21T14:54:36.594Z,7.90
2018-10-21T14:57:05.620Z,7.87
2018-10-21T14:59:34.638Z,7.77
2018-10-21T15:02:03.734Z,7.60
2018-10-21T15:04:32.799Z,7.87
2018-10-21T15:07:02.002Z,7.97
2018-10-21T15:09:30.997Z,7.53
2018-10-21T15:12:00.062Z,7.47
2018-10-21T15:14:29.251Z,7.27
2018-10-21T15:16:58.284Z,7.53
2018-10-21T15:19:27.486Z,8.57
2018-10-21T15:21:56.522Z,8.27
2018-10-21T15:24:25.470Z,7.40
2018-10-21T15:26:54.739Z,8.70
2018-10-21T15:29:23.895Z,7.93
2018-10-21T15:31:52.899Z,7.87
2018-10-21T15:34:21.927Z,7.47
2018-10-21T15:36:50.970Z,7.60
2018-10-21T15:39:20.579Z,8.20
2018-10-21T15:41:49.667Z,8.20
2018-10-21T15:44:18.867Z,7.93
2018-10-21T15:46:47.999Z,8.23
2018-10-21T15:49:17.075Z,7.67
2018-10-21T15:51:46.244Z,7.60
2018-10-21T15:54:15.579Z,7.50
2018-10-21T15:56:45.259Z,7.67
2018-10-21T15:59:14.586Z,7.70
2018-10-21T16:01:43.683Z,7.57
2018-10-21T16:04:12.768Z,8.07
2018-10-21T16:06:41.954Z,9.03
2018-10-21T16:09:12.766Z,11.57
2018-10-21T16:11:41.983Z,16.90
2018-10-21T16:14:11.228Z,14.17
2018-10-21T16:16:40.618Z,10.87
2018-10-21T16:19:09.819Z,9.37
2018-10-21T16:21:39.134Z,8.43
2018-10-21T16:24:08.167Z,9.00
2018-10-21T16:26:37.583Z,9.37
2018-10-21T16:29:06.622Z,8.70
2018-10-21T16:31:35.699Z,8.83
2018-10-21T16:34:05.128Z,8.97
2018-10-21T16:36:34.210Z,9.33
2018-10-21T16:39:04.759Z,9.63
2018-10-21T16:41:34.402Z,10.60
2018-10-21T16:44:03.614Z,9.57
2018-10-21T16:46:32.952Z,10.30
2018-10-21T16:49:02.073Z,10.00
2018-10-21T16:51:31.225Z,9.90
2018-10-21T16:54:00.267Z,10.03
2018-10-21T16:56:29.617Z,10.67
2018-10-21T16:58:58.729Z,10.50
2018-10-21T17:01:27.895Z,11.27
2018-10-21T17:03:57.142Z,10.63
2018-10-21T17:06:26.419Z,10.87
2018-10-21T17:08:55.865Z,11.37
2018-10-21T17:11:24.997Z,11.47
2018-10-21T17:13:54.332Z,11.30
2018-10-21T17:16:23.678Z,11.97
2018-10-21T17:18:52.809Z,10.33
2018-10-21T17:21:22.297Z,10.73
2018-10-21T17:23:51.382Z,10.90
2018-10-21T17:26:21.283Z,10.70
2018-10-21T17:28:50.391Z,11.07
2018-10-21T17:31:19.562Z,11.03
2018-10-21T17:33:48.791Z,11.07
2018-10-21T17:36:17.859Z,11.03
2018-10-21T17:38:47.056Z,11.67
2018-10-21T17:41:16.351Z,11.13
2018-10-21T17:43:52.105Z,11.70
2018-10-21T17:46:21.556Z,11.43
2018-10-21T17:48:50.967Z,12.03
2018-10-21T17:51:20.255Z,11.47
2018-10-21T17:53:49.461Z,12.53
2018-10-21T17:56:18.734Z,12.60
2018-10-21T17:58:47.961Z,12.50
2018-10-21T18:01:17.076Z,12.17
2018-10-21T18:03:46.097Z,11.50
2018-10-21T18:06:15.089Z,12.33
2018-10-21T18:08:44.182Z,12.57
2018-10-21T18:11:13.457Z,12.70
2018-10-21T18:13:42.727Z,12.90
2018-10-21T18:16:11.847Z,13.20
2018-10-21T18:18:41.043Z,13.80
2018-10-21T18:21:10.237Z,14.03
2018-10-21T18:23:39.448Z,14.53
2018-10-21T18:26:08.635Z,13.97
2018-10-21T18:28:37.797Z,14.87
2018-10-21T18:31:06.920Z,13.80
2018-10-21T18:33:35.875Z,15.60
2018-10-21T18:36:05.019Z,14.37
2018-10-21T18:38:34.080Z,13.47
2018-10-21T18:41:03.305Z,13.20
2018-10-21T18:43:32.317Z,13.57
2018-10-21T18:46:01.389Z,14.10
2018-10-21T18:48:30.702Z,13.17
2018-10-21T18:50:59.679Z,13.77
2018-10-21T18:53:28.977Z,12.93
2018-10-21T18:55:58.701Z,12.70
2018-10-21T18:58:27.790Z,12.10
2018-10-21T19:00:57.502Z,13.17
2018-10-21T19:03:26.579Z,12.63
2018-10-21T19:05:55.818Z,13.37
2018-10-21T19:08:25.018Z,12.53
2018-10-21T19:10:54.060Z,12.43
2018-10-21T19:13:23.240Z,12.50
2018-10-21T19:15:52.419Z,13.40
2018-10-21T19:18:21.722Z,13.33
2018-10-21T19:20:50.866Z,13.37
2018-10-21T19:23:20.114Z,13.33
2018-10-21T19:25:49.231Z,14.37
2018-10-21T19:28:18.385Z,12.97
2018-10-21T19:30:47.422Z,14.17
2018-10-21T19:33:16.522Z,14.47
2018-10-21T19:35:45.630Z,15.33
2018-10-21T19:38:14.721Z,14.67
2018-10-21T19:40:43.748Z,13.67
2018-10-21T19:43:12.994Z,14.00
2018-10-21T19:45:41.950Z,13.77
2018-10-21T19:48:11.224Z,13.77
2018-10-21T19:50:40.394Z,15.27
2018-10-21T19:53:09.445Z,14.43
2018-10-21T19:55:38.494Z,14.43
2018-10-21T19:58:07.689Z,14.63
2018-10-21T20:00:36.817Z,14.73
2018-10-21T20:03:05.877Z,14.63
2018-10-21T20:05:35.015Z,15.40
2018-10-21T20:08:04.169Z,15.57
2018-10-21T20:10:33.233Z,14.83
2018-10-21T20:13:02.387Z,15.03
2018-10-21T20:15:31.716Z,14.17
2018-10-21T20:18:00.765Z,15.03
2018-10-21T20:20:29.866Z,13.83
2018-10-21T20:22:58.949Z,14.27
2018-10-21T20:25:28.175Z,13.37
2018-10-21T20:27:57.490Z,14.53
2018-10-21T20:30:26.508Z,14.10
2018-10-21T20:32:55.566Z,14.30
2018-10-21T20:35:24.641Z,14.20
2018-10-21T20:37:53.860Z,14.37
2018-10-21T20:40:22.838Z,14.50
2018-10-21T20:42:51.899Z,15.17
2018-10-21T20:45:20.924Z,15.90
2018-10-21T20:47:50.447Z,14.97
2018-10-21T20:50:19.557Z,15.00
2018-10-21T20:52:48.712Z,14.47
2018-10-21T20:55:17.725Z,15.90
2018-10-21T20:57:46.724Z,16.83
2018-10-21T21:00:15.782Z,16.67
2018-10-21T21:02:45.032Z,16.53
2018-10-21T21:05:14.084Z,17.27
2018-10-21T21:07:43.148Z,17.40
2018-10-21T21:10:12.455Z,17.53
2018-10-21T21:12:41.659Z,16.57
2018-10-21T21:15:11.002Z,17.83
2018-10-21T21:17:39.995Z,17.97
2018-10-21T21:20:09.751Z,19.63
2018-10-21T21:22:38.815Z,19.27
2018-10-21T21:25:08.029Z,19.17
2018-10-21T21:27:37.368Z,20.50
2018-10-21T21:30:07.161Z,18.83
2018-10-21T21:32:36.434Z,20.30
2018-10-21T21:35:06.641Z,19.27
2018-10-21T21:37:36.052Z,17.83
2018-10-21T21:40:06.581Z,17.83
2018-10-21T21:42:35.817Z,18.53
2018-10-21T21:45:05.255Z,16.97
2018-10-21T21:47:34.245Z,16.87
2018-10-21T21:50:03.355Z,16.37
2018-10-21T21:52:32.342Z,17.87
2018-10-21T21:55:01.295Z,17.10
2018-10-21T21:57:30.482Z,16.80
2018-10-21T21:59:59.524Z,17.20
2018-10-21T22:02:28.656Z,17.30
2018-10-21T22:04:57.843Z,17.23
2018-10-21T22:07:26.993Z,17.27
2018-10-21T22:09:56.096Z,18.77
2018-10-21T22:12:25.108Z,17.10
2018-10-21T22:14:54.143Z,19.23
2018-10-21T22:17:23.219Z,17.20
2018-10-21T22:19:52.319Z,17.67
2018-10-21T22:22:21.617Z,17.63
2018-10-21T22:24:50.651Z,17.13
2018-10-21T22:27:19.737Z,17.83
2018-10-21T22:29:48.944Z,18.60
2018-10-21T22:32:17.958Z,18.27
2018-10-21T22:34:46.941Z,18.10
2018-10-21T22:37:16.044Z,18.63
2018-10-21T22:39:45.080Z,18.53
2018-10-21T22:42:14.174Z,17.67
2018-10-21T22:44:43.285Z,17.70
2018-10-21T22:47:12.326Z,17.17
2018-10-21T22:49:41.327Z,18.17
2018-10-21T22:52:10.481Z,17.47
2018-10-21T22:54:39.531Z,17.10
2018-10-21T22:57:13.911Z,15.97
2018-10-21T22:59:43.017Z,14.67
2018-10-21T23:02:12.105Z,14.73
2018-10-21T23:04:41.214Z,14.97
2018-10-21T23:07:10.250Z,14.10
2018-10-21T23:09:39.353Z,14.33
2018-10-21T23:12:08.544Z,14.03
2018-10-21T23:14:38.722Z,15.00
2018-10-21T23:17:07.746Z,13.80
2018-10-21T23:19:44.523Z,14.80
2018-10-21T23:22:13.861Z,15.00
2018-10-21T23:24:42.785Z,14.50
2018-10-21T23:27:12.436Z,14.10
2018-10-21T23:29:42.390Z,14.63
2018-10-21T23:32:11.481Z,13.70
2018-10-21T23:34:40.469Z,14.80
2018-10-21T23:37:09.500Z,14.00
2018-10-21T23:39:38.563Z,14.37
2018-10-21T23:42:07.758Z,14.50
2018-10-21T23:44:36.781Z,14.63
2018-10-21T23:47:05.966Z,15.53
2018-10-21T23:49:41.569Z,15.07
2018-10-21T23:52:10.633Z,14.93
2018-10-21T23:54:39.726Z,15.37
2018-10-21T23:57:08.711Z,14.20
2018-10-21T23:59:37.809Z,16.27
